Time;durP1;ratioP1;P1;durP2;ratioP2;P2;SDS_P1;SDS_P2;PMS_P1;PMS_P2;Temp;Humidity;BMP_temperature;BMP_pressure;BME280_temperature;BME280_humidity;BME280_pressure;Samples;Min_cycle;Max_cycle;Signal;HPM_P1;HPM_P2
2022/01/14 00:01:12;;;;;;;12.02;6.43;;;;;;;-141.50;100.00;63355.56;5059907;28;20102;-84
2022/01/14 00:03:39;;;;;;;12.18;6.63;;;;;;;-141.50;100.00;63355.56;5058706;28;20144;-82
2022/01/14 00:06:05;;;;;;;13.40;6.43;;;;;;;-141.50;100.00;63355.56;5058808;28;20099;-84
2022/01/14 00:08:32;;;;;;;16.58;6.93;;;;;;;-141.50;100.00;63355.56;5059502;28;20110;-83
2022/01/14 00:11:00;;;;;;;16.70;7.13;;;;;;;-141.50;100.00;63355.56;5059639;28;20053;-85
2022/01/14 00:16:12;;;;;;;12.65;6.70;;;;;;;-141.50;100.00;63355.56;5068092;28;20083;-82
2022/01/14 00:18:39;;;;;;;12.90;6.65;;;;;;;-141.50;100.00;63355.56;5065975;28;20521;-84
2022/01/14 00:21:05;;;;;;;13.95;6.65;;;;;;;-141.50;100.00;63355.56;5061345;28;20053;-84
2022/01/14 00:23:37;;;;;;;12.75;6.32;;;;;;;-141.50;100.00;63355.56;5061945;28;20048;-85
2022/01/14 00:34:07;;;;;;;11.32;5.97;;;;;;;-141.50;100.00;63355.56;5061847;28;20055;-84
2022/01/14 00:36:33;;;;;;;10.70;5.55;;;;;;;-141.50;100.00;63355.56;5060840;28;20517;-82
2022/01/14 00:39:00;;;;;;;12.27;5.82;;;;;;;-141.50;100.00;63355.56;5061583;28;20099;-83
2022/01/14 00:41:27;;;;;;;12.02;5.95;;;;;;;-141.50;100.00;63355.56;5061505;28;20060;-83
2022/01/14 00:44:00;;;;;;;13.35;6.03;;;;;;;-141.50;100.00;63355.56;5061867;28;20047;-83
2022/01/14 00:46:28;;;;;;;11.38;5.40;;;;;;;-141.50;100.00;63355.56;5062533;28;20118;-85
2022/01/14 00:48:56;;;;;;;11.93;5.47;;;;;;;-141.50;100.00;63355.56;5065938;28;20068;-84
2022/01/14 00:51:23;;;;;;;12.07;5.25;;;;;;;-141.50;100.00;63355.56;5063282;28;20060;-84
2022/01/14 00:53:50;;;;;;;11.27;5.85;;;;;;;-141.50;100.00;63355.56;5061392;28;20076;-85
2022/01/14 00:56:32;;;;;;;12.15;5.47;;;;;;;-141.50;100.00;63355.56;5061203;28;20057;-85
2022/01/14 00:59:14;;;;;;;11.20;5.97;;;;;;;-141.50;100.00;63355.56;5063952;28;20044;-83
2022/01/14 01:01:42;;;;;;;10.52;5.50;;;;;;;-141.50;100.00;63355.56;5061562;28;20216;-84
2022/01/14 01:04:11;;;;;;;12.00;5.80;;;;;;;-141.50;100.00;63355.56;5066136;28;20452;-85
2022/01/14 01:06:38;;;;;;;12.63;6.13;;;;;;;-141.50;100.00;63355.56;5064017;28;20057;-84
2022/01/14 01:09:10;;;;;;;12.63;5.68;;;;;;;-141.50;100.00;63355.56;5062283;28;20099;-84
2022/01/14 01:11:48;;;;;;;9.93;5.13;;;;;;;-141.50;100.00;63355.56;5061835;28;20055;-85
2022/01/14 01:14:21;;;;;;;12.35;5.80;;;;;;;-141.50;100.00;63355.56;5062624;28;20620;-85
2022/01/14 01:16:48;;;;;;;10.48;5.32;;;;;;;-141.50;100.00;63355.56;5061465;28;20061;-85
2022/01/14 01:19:14;;;;;;;13.02;5.25;;;;;;;-141.50;100.00;63355.56;5062596;28;20747;-82
2022/01/14 01:21:41;;;;;;;12.35;5.35;;;;;;;-141.50;100.00;63355.56;5062940;28;20045;-85
2022/01/14 01:24:10;;;;;;;10.80;5.45;;;;;;;-141.50;100.00;63355.56;5063015;28;20124;-84
2022/01/14 01:26:40;;;;;;;10.30;5.10;;;;;;;-141.50;100.00;63355.56;5067016;28;20056;-84
2022/01/14 01:31:43;;;;;;;11.00;5.35;;;;;;;-141.50;100.00;63355.56;5063497;28;20061;-83
2022/01/14 01:34:19;;;;;;;10.27;5.45;;;;;;;-141.50;100.00;63355.56;5067529;28;20041;-85
2022/01/14 01:36:49;;;;;;;10.95;5.53;;;;;;;-141.50;100.00;63355.56;5064812;28;20044;-85
2022/01/14 01:39:19;;;;;;;11.95;5.68;;;;;;;-141.50;100.00;63355.56;5066203;28;20147;-84
2022/01/14 01:41:48;;;;;;;12.45;5.68;;;;;;;-141.50;100.00;63355.56;5060023;28;20079;-85
2022/01/14 01:44:17;;;;;;;10.40;5.15;;;;;;;-141.50;100.00;63355.56;5061982;28;20060;-81
2022/01/14 01:46:46;;;;;;;11.68;5.47;;;;;;;-141.50;100.00;63355.56;5060319;28;20068;-84
2022/01/14 01:49:16;;;;;;;11.50;4.97;;;;;;;-141.50;100.00;63355.56;5060950;28;20049;-85
2022/01/14 01:51:45;;;;;;;10.13;5.03;;;;;;;-141.50;100.00;63355.56;5061325;28;20076;-82
2022/01/14 01:54:13;;;;;;;13.70;5.07;;;;;;;-141.50;100.00;63355.56;5060794;28;20707;-82
2022/01/14 01:56:40;;;;;;;11.35;5.25;;;;;;;-141.50;100.00;63355.56;5061107;28;20524;-82
2022/01/14 01:59:09;;;;;;;12.13;5.88;;;;;;;-141.50;100.00;63355.56;5071461;28;20048;-83
2022/01/14 02:01:38;;;;;;;10.13;5.22;;;;;;;-141.50;100.00;63355.56;5071879;28;20033;-83
2022/01/14 02:04:05;;;;;;;13.50;6.00;;;;;;;-141.50;100.00;63355.56;5065266;28;20095;-84
2022/01/14 02:06:32;;;;;;;13.82;5.38;;;;;;;-141.50;100.00;63355.56;5062073;28;20045;-84
2022/01/14 02:08:59;;;;;;;11.77;5.70;;;;;;;-141.50;100.00;63355.56;5062410;28;20398;-84
2022/01/14 02:11:25;;;;;;;11.32;5.75;;;;;;;-141.50;100.00;63355.56;5061096;28;20083;-84
2022/01/14 02:13:55;;;;;;;12.38;5.72;;;;;;;-141.50;100.00;63355.56;5061421;28;20103;-85
2022/01/14 02:17:00;;;;;;;11.88;5.75;;;;;;;-141.50;100.00;63355.56;5062385;28;20048;-85
2022/01/14 02:22:08;;;;;;;11.85;5.90;;;;;;;-141.50;100.00;63355.56;5064665;28;20075;-83
2022/01/14 02:27:09;;;;;;;11.50;5.38;;;;;;;-141.50;100.00;63355.56;5061807;28;20098;-86
2022/01/14 02:29:36;;;;;;;13.32;5.07;;;;;;;-141.50;100.00;63355.56;5061187;28;20071;-85
2022/01/14 02:32:04;;;;;;;11.27;5.45;;;;;;;-141.50;100.00;63355.56;5059983;28;20053;-85
2022/01/14 02:34:30;;;;;;;13.55;5.50;;;;;;;-141.50;100.00;63355.56;5071375;28;20033;-83
2022/01/14 02:36:57;;;;;;;9.85;4.90;;;;;;;-141.50;100.00;63355.56;5073244;28;20238;-84
2022/01/14 02:39:24;;;;;;;11.60;4.60;;;;;;;-141.50;100.00;63355.56;5062043;28;20048;-85
2022/01/14 02:41:51;;;;;;;14.85;5.40;;;;;;;-141.50;100.00;63355.56;5062945;28;20049;-84
2022/01/14 02:44:26;;;;;;;11.38;4.82;;;;;;;-141.50;100.00;63355.56;5062756;28;20041;-84
2022/01/14 02:47:03;;;;;;;11.02;4.38;;;;;;;-141.50;100.00;63355.56;5061903;28;20083;-85
2022/01/14 02:49:32;;;;;;;11.52;4.72;;;;;;;-141.50;100.00;63355.56;5067069;28;20049;-84
2022/01/14 02:52:03;;;;;;;8.20;4.35;;;;;;;-141.50;100.00;63355.56;5062343;28;20049;-84
2022/01/14 02:54:38;;;;;;;9.18;4.50;;;;;;;-141.50;100.00;63355.56;5061263;28;20049;-85
2022/01/14 02:57:07;;;;;;;9.05;4.68;;;;;;;-141.50;100.00;63355.56;5060467;28;20057;-84
2022/01/14 02:59:37;;;;;;;8.68;4.45;;;;;;;-141.50;100.00;63355.56;5061865;28;20073;-85
2022/01/14 03:02:07;;;;;;;11.00;4.88;;;;;;;-141.50;100.00;63355.56;5062123;28;20312;-84
2022/01/14 03:04:39;;;;;;;8.13;4.35;;;;;;;-141.50;100.00;63355.56;5060851;28;20045;-86
2022/01/14 03:07:09;;;;;;;8.90;4.85;;;;;;;-141.50;100.00;63355.56;5073371;28;20053;-84
2022/01/14 03:09:37;;;;;;;10.45;5.00;;;;;;;-141.50;100.00;63355.56;5063234;28;20049;-85
2022/01/14 03:12:05;;;;;;;10.18;4.72;;;;;;;-141.50;100.00;63355.56;5059360;28;20053;-84
2022/01/14 03:14:32;;;;;;;11.00;4.97;;;;;;;-141.50;100.00;63355.56;5060224;28;20053;-84
2022/01/14 03:17:00;;;;;;;9.88;5.15;;;;;;;-141.50;100.00;63355.56;5059460;28;20468;-85
2022/01/14 03:19:27;;;;;;;8.88;4.53;;;;;;;-141.50;100.00;63355.56;5059150;28;20075;-85
2022/01/14 03:22:06;;;;;;;9.20;4.40;;;;;;;-141.50;100.00;63355.56;5061025;28;20068;-86
2022/01/14 03:27:04;;;;;;;9.23;4.38;;;;;;;-141.50;100.00;63355.56;5059519;28;20049;-85
2022/01/14 03:29:31;;;;;;;10.20;4.70;;;;;;;-141.50;100.00;63355.56;5058469;28;20052;-85
2022/01/14 03:31:58;;;;;;;8.43;4.20;;;;;;;-141.50;100.00;63355.56;5061911;28;20053;-85
2022/01/14 03:34:24;;;;;;;10.45;4.88;;;;;;;-141.50;100.00;63355.56;5057111;28;20045;-87
2022/01/14 03:36:52;;;;;;;10.35;4.63;;;;;;;-141.50;100.00;63355.56;5057769;28;20452;-85
2022/01/14 03:39:19;;;;;;;9.65;4.20;;;;;;;-141.50;100.00;63355.56;5056739;28;20126;-85
2022/01/14 03:41:46;;;;;;;9.75;4.63;;;;;;;-141.50;100.00;63355.56;5060869;28;20499;-85
2022/01/14 03:44:13;;;;;;;9.30;4.78;;;;;;;-141.50;100.00;63355.56;5056207;28;20053;-83
2022/01/14 03:46:39;;;;;;;12.55;4.97;;;;;;;-141.50;100.00;63355.56;5058099;28;20052;-84
2022/01/14 03:49:06;;;;;;;9.20;4.88;;;;;;;-141.50;100.00;63355.56;5055292;28;20398;-85
2022/01/14 03:51:34;;;;;;;10.63;4.97;;;;;;;-141.50;100.00;63355.56;5057753;28;20048;-84
2022/01/14 03:54:01;;;;;;;11.68;5.00;;;;;;;-141.50;100.00;63355.56;5057939;28;20056;-86
2022/01/14 03:56:27;;;;;;;8.52;4.50;;;;;;;-141.50;100.00;63355.56;5055909;28;20049;-86
2022/01/14 03:58:54;;;;;;;11.13;5.10;;;;;;;-141.50;100.00;63355.56;5057367;28;20049;-85
2022/01/14 04:01:22;;;;;;;10.65;5.18;;;;;;;-141.50;100.00;63355.56;5057596;28;20053;-86
2022/01/14 04:03:49;;;;;;;11.88;5.60;;;;;;;-141.50;100.00;63355.56;5056903;28;20049;-86
2022/01/14 04:06:17;;;;;;;11.18;5.32;;;;;;;-141.50;100.00;63355.56;5064582;28;20056;-85
2022/01/14 04:08:44;;;;;;;12.02;5.50;;;;;;;-141.50;100.00;63355.56;5058758;28;20107;-85
2022/01/14 04:11:12;;;;;;;10.75;5.18;;;;;;;-141.50;100.00;63355.56;5055351;28;20469;-84
2022/01/14 04:13:53;;;;;;;11.43;5.43;;;;;;;-141.50;100.00;63355.56;5055299;28;20056;-86
2022/01/14 04:16:22;;;;;;;11.32;5.43;;;;;;;-141.50;100.00;63355.56;5055920;28;20049;-85
2022/01/14 04:18:50;;;;;;;13.02;5.80;;;;;;;-141.50;100.00;63355.56;5055675;28;20469;-85
2022/01/14 04:21:18;;;;;;;11.98;5.70;;;;;;;-141.50;100.00;63355.56;5057680;28;20453;-85
2022/01/14 04:23:45;;;;;;;11.82;5.60;;;;;;;-141.50;100.00;63355.56;5058381;28;20053;-83
2022/01/14 04:26:12;;;;;;;13.35;5.65;;;;;;;-141.50;100.00;63355.56;5054081;28;20067;-85
2022/01/14 04:28:42;;;;;;;10.50;5.28;;;;;;;-141.50;100.00;63355.56;5053608;28;20057;-83
2022/01/14 04:31:09;;;;;;;11.00;5.70;;;;;;;-141.50;100.00;63355.56;5055816;28;20053;-86
2022/01/14 04:33:37;;;;;;;11.15;5.30;;;;;;;-141.50;100.00;63355.56;5057919;28;20098;-86
2022/01/14 04:36:05;;;;;;;12.65;6.03;;;;;;;-141.50;100.00;63355.56;5059959;28;20138;-84
2022/01/14 04:38:32;;;;;;;15.80;6.15;;;;;;;-141.50;100.00;63355.56;5061878;28;20099;-84
2022/01/14 04:40:59;;;;;;;12.60;5.68;;;;;;;-141.50;100.00;63355.56;5059703;28;20087;-84
2022/01/14 04:43:26;;;;;;;10.82;5.63;;;;;;;-141.50;100.00;63355.56;5057299;28;20053;-83
2022/01/14 04:48:27;;;;;;;11.38;5.85;;;;;;;-141.50;100.00;63355.56;5058304;28;20110;-84
2022/01/14 04:50:54;;;;;;;13.25;6.13;;;;;;;-141.50;100.00;63355.56;5058621;28;20061;-83
2022/01/14 04:53:22;;;;;;;12.07;5.93;;;;;;;-141.50;100.00;63355.56;5062781;28;20048;-85
2022/01/14 04:55:50;;;;;;;12.73;6.00;;;;;;;-141.50;100.00;63355.56;5059763;28;20072;-83
2022/01/14 04:58:17;;;;;;;12.02;6.05;;;;;;;-141.50;100.00;63355.56;5059529;28;20048;-86
2022/01/14 05:00:44;;;;;;;13.27;6.15;;;;;;;-141.50;100.00;63355.56;5059251;28;20083;-85
2022/01/14 05:03:11;;;;;;;12.73;6.35;;;;;;;-141.50;100.00;63355.56;5066561;28;20049;-82
2022/01/14 05:05:41;;;;;;;12.88;6.32;;;;;;;-141.50;100.00;63355.56;5074348;28;20049;-83
2022/01/14 05:08:18;;;;;;;15.20;6.20;;;;;;;-141.50;100.00;63355.56;5065157;28;20164;-85
2022/01/14 05:11:02;;;;;;;;;;;;;;;;;;;;;
2022/01/14 05:13:14;;;;;;;12.70;5.80;;;;;;;-141.50;100.00;63355.56;5071508;28;20056;-82
2022/01/14 05:15:41;;;;;;;11.00;5.18;;;;;;;-141.50;100.00;63355.56;5071276;28;20072;-82
2022/01/14 05:18:08;;;;;;;12.48;5.75;;;;;;;-141.50;100.00;63355.56;5059563;28;20064;-84
2022/01/14 05:20:34;;;;;;;11.13;5.30;;;;;;;-141.50;100.00;63355.56;5059828;28;20071;-85
2022/01/14 05:23:01;;;;;;;11.73;5.90;;;;;;;-141.50;100.00;63355.56;5060197;28;20098;-85
2022/01/14 05:25:28;;;;;;;12.88;5.70;;;;;;;-141.50;100.00;63355.56;5060661;28;20064;-84
2022/01/14 05:27:54;;;;;;;11.15;5.50;;;;;;;-141.50;100.00;63355.56;5061620;28;20119;-84
2022/01/14 05:30:21;;;;;;;13.15;5.78;;;;;;;-141.50;100.00;63355.56;5061707;28;20072;-81
2022/01/14 05:32:53;;;;;;;12.15;5.68;;;;;;;-141.50;100.00;63355.56;5060240;28;20096;-83
2022/01/14 05:35:22;;;;;;;11.70;5.70;;;;;;;-141.50;100.00;63355.56;5061042;28;20480;-82
2022/01/14 05:37:50;;;;;;;11.80;5.15;;;;;;;-141.50;100.00;63355.56;5059421;28;20053;-85
2022/01/14 05:40:19;;;;;;;11.88;4.68;;;;;;;-141.50;100.00;63355.56;5060384;28;20057;-84
2022/01/14 05:42:46;;;;;;;15.30;5.75;;;;;;;-141.50;100.00;63355.56;5063295;28;20045;-84
2022/01/14 05:45:14;;;;;;;9.93;4.95;;;;;;;-141.50;100.00;63355.56;5062904;28;20098;-84
2022/01/14 05:47:42;;;;;;;12.32;5.30;;;;;;;-141.50;100.00;63355.56;5061787;28;20079;-84
2022/01/14 05:50:11;;;;;;;12.57;5.70;;;;;;;-141.50;100.00;63355.56;5059256;28;20072;-85
2022/01/14 05:52:39;;;;;;;10.63;5.15;;;;;;;-141.50;100.00;63355.56;5071035;28;20075;-83
2022/01/14 05:55:08;;;;;;;10.05;5.25;;;;;;;-141.50;100.00;63355.56;5070490;28;20052;-82
2022/01/14 05:57:37;;;;;;;14.02;4.70;;;;;;;-141.50;100.00;63355.56;5062293;28;20053;-83
2022/01/14 06:00:09;;;;;;;13.38;5.78;;;;;;;-141.50;100.00;63355.56;5042221;28;20072;-84
2022/01/14 06:02:36;;;;;;;11.85;5.65;;;;;;;-141.50;100.00;63355.56;5047664;28;20065;-84
2022/01/14 06:05:03;;;;;;;10.75;4.78;;;;;;;-141.50;100.00;63355.56;5036632;28;20053;-82
2022/01/14 06:07:30;;;;;;;12.55;5.45;;;;;;;-141.50;100.00;63355.56;5036798;28;20080;-82
2022/01/14 06:09:56;;;;;;;9.68;4.88;;;;;;;-141.50;100.00;63355.56;5036406;28;20635;-82
2022/01/14 06:12:23;;;;;;;15.73;5.35;;;;;;;-141.50;100.00;63355.56;5036289;28;20049;-83
2022/01/14 06:14:49;;;;;;;10.95;4.45;;;;;;;-141.50;100.00;63355.56;5036595;28;20045;-83
2022/01/14 06:17:16;;;;;;;10.07;4.38;;;;;;;-141.50;100.00;63355.56;5031951;28;20326;-83
2022/01/14 06:19:42;;;;;;;10.30;4.25;;;;;;;-141.50;100.00;63355.56;5034382;28;20099;-82
2022/01/14 06:22:09;;;;;;;11.75;4.43;;;;;;;-141.50;100.00;63355.56;5035717;28;20057;-83
2022/01/14 06:24:35;;;;;;;9.60;4.30;;;;;;;-141.50;100.00;63355.56;5038771;28;20041;-81
2022/01/14 06:27:02;;;;;;;10.02;4.47;;;;;;;-141.50;100.00;63355.56;5043166;28;20123;-82
2022/01/14 06:29:28;;;;;;;8.93;4.43;;;;;;;-141.50;100.00;63355.56;5035945;28;20061;-82
2022/01/14 06:31:55;;;;;;;9.90;4.43;;;;;;;-141.50;100.00;63355.56;5045437;28;20056;-82
2022/01/14 06:34:21;;;;;;;14.00;4.15;;;;;;;-141.50;100.00;63355.56;5043819;28;20195;-83
2022/01/14 06:36:48;;;;;;;10.02;4.05;;;;;;;-141.50;100.00;63355.56;5038110;28;20127;-83
2022/01/14 06:39:14;;;;;;;7.85;3.88;;;;;;;-141.50;100.00;63355.56;5031028;28;20125;-83
2022/01/14 06:41:41;;;;;;;8.63;4.13;;;;;;;-141.50;100.00;63355.56;5043642;28;20060;-82
2022/01/14 06:44:08;;;;;;;12.23;4.70;;;;;;;-141.50;100.00;63355.56;5050499;28;20052;-83
2022/01/14 06:46:34;;;;;;;14.82;4.82;;;;;;;-141.50;100.00;63355.56;5028394;28;20092;-82
2022/01/14 06:49:02;;;;;;;10.57;4.90;;;;;;;-141.50;100.00;63355.56;5038499;28;20052;-83
2022/01/14 06:51:28;;;;;;;9.10;4.78;;;;;;;-141.50;100.00;63355.56;5040256;28;20057;-82
2022/01/14 06:53:55;;;;;;;12.02;5.60;;;;;;;-141.50;100.00;63355.56;5029117;28;20587;-83
2022/01/14 06:56:21;;;;;;;10.80;5.50;;;;;;;-141.50;100.00;63355.56;5030489;28;20099;-82
2022/01/14 06:58:48;;;;;;;10.50;4.78;;;;;;;-141.50;100.00;63355.56;5052358;28;20114;-82
2022/01/14 07:01:16;;;;;;;9.82;4.65;;;;;;;-141.50;100.00;63355.56;5050918;28;20053;-82
2022/01/14 07:03:43;;;;;;;11.43;4.63;;;;;;;-141.50;100.00;63355.56;5036597;28;20478;-82
2022/01/14 07:06:10;;;;;;;8.80;4.32;;;;;;;-141.50;100.00;63355.56;5042193;28;20045;-82
2022/01/14 07:08:37;;;;;;;9.23;4.18;;;;;;;-141.50;100.00;63355.56;5048839;28;20053;-83
2022/01/14 07:11:04;;;;;;;9.02;4.65;;;;;;;-141.50;100.00;63355.56;5053589;28;20053;-83
2022/01/14 07:13:30;;;;;;;8.70;4.32;;;;;;;-141.50;100.00;63355.56;5053067;28;20049;-83
2022/01/14 07:16:01;;;;;;;9.38;4.50;;;;;;;-141.50;100.00;63355.56;5053453;28;20045;-82
2022/01/14 07:18:28;;;;;;;9.73;4.65;;;;;;;-141.50;100.00;63355.56;5054048;28;20059;-82
2022/01/14 07:20:55;;;;;;;10.32;5.07;;;;;;;-141.50;100.00;63355.56;5053415;28;20107;-83
2022/01/14 07:23:21;;;;;;;14.38;4.85;;;;;;;-141.50;100.00;63355.56;5054265;28;20517;-82
2022/01/14 07:25:48;;;;;;;11.65;4.97;;;;;;;-141.50;100.00;63355.56;5054247;28;20094;-82
2022/01/14 07:28:14;;;;;;;13.90;4.45;;;;;;;-141.50;100.00;63355.56;5059910;28;20103;-82
2022/01/14 07:30:41;;;;;;;11.50;4.88;;;;;;;-141.50;100.00;63355.56;5064295;28;20079;-83
2022/01/14 07:33:07;;;;;;;12.13;4.40;;;;;;;-141.50;100.00;63355.56;5057843;28;20060;-83
2022/01/14 07:35:34;;;;;;;9.55;4.57;;;;;;;-141.50;100.00;63355.56;5052483;28;20041;-82
2022/01/14 07:38:00;;;;;;;10.65;4.55;;;;;;;-141.50;100.00;63355.56;5042083;28;20061;-83
2022/01/14 07:40:27;;;;;;;11.82;4.65;;;;;;;-141.50;100.00;63355.56;5047624;28;20053;-83
2022/01/14 07:42:54;;;;;;;9.70;4.65;;;;;;;-141.50;100.00;63355.56;5062718;28;20049;-84
2022/01/14 07:45:20;;;;;;;11.30;4.55;;;;;;;-141.50;100.00;63355.56;5063306;28;20644;-83
2022/01/14 07:47:47;;;;;;;11.50;4.90;;;;;;;-141.50;100.00;63355.56;5062889;28;20075;-82
2022/01/14 07:50:13;;;;;;;8.25;4.32;;;;;;;-141.50;100.00;63355.56;5062634;28;20052;-82
2022/01/14 07:52:40;;;;;;;9.70;4.55;;;;;;;-141.50;100.00;63355.56;5062617;28;20126;-83
2022/01/14 07:55:07;;;;;;;13.40;4.45;;;;;;;-141.50;100.00;63355.56;5064876;28;20053;-83
2022/01/14 07:57:34;;;;;;;10.20;4.78;;;;;;;-141.50;100.00;63355.56;5063354;28;20122;-82
2022/01/14 08:00:02;;;;;;;9.95;4.90;;;;;;;-141.50;100.00;63355.56;5062103;28;20107;-83
2022/01/14 08:02:29;;;;;;;8.43;4.18;;;;;;;-141.50;100.00;63355.56;5063333;28;20079;-83
2022/01/14 08:04:56;;;;;;;9.52;4.10;;;;;;;-141.50;100.00;63355.56;5066412;28;20611;-82
2022/01/14 08:07:24;;;;;;;11.32;4.82;;;;;;;-141.50;100.00;63355.56;5049745;28;20072;-83
2022/01/14 08:09:52;;;;;;;10.18;4.70;;;;;;;-141.50;100.00;63355.56;5041360;28;20049;-83
2022/01/14 08:12:19;;;;;;;9.80;4.20;;;;;;;-141.50;100.00;63355.56;5041258;28;20049;-83
2022/01/14 08:14:45;;;;;;;10.95;4.53;;;;;;;-141.50;100.00;63355.56;5042154;28;20537;-83
2022/01/14 08:17:15;;;;;;;7.03;3.92;;;;;;;-141.50;100.00;63355.56;5041446;28;20049;-84
2022/01/14 08:19:41;;;;;;;14.73;5.00;;;;;;;-141.50;100.00;63355.56;5057338;28;20045;-85
2022/01/14 08:22:08;;;;;;;8.70;4.28;;;;;;;-141.50;100.00;63355.56;5063671;28;20037;-83
2022/01/14 08:24:36;;;;;;;11.52;4.25;;;;;;;-141.50;100.00;63355.56;5063416;28;20048;-84
2022/01/14 08:27:05;;;;;;;9.45;3.90;;;;;;;-141.50;100.00;63355.56;5062021;28;20489;-84
2022/01/14 08:29:33;;;;;;;10.15;4.15;;;;;;;-141.50;100.00;63355.56;5063095;28;20056;-84
2022/01/14 08:32:00;;;;;;;9.70;4.00;;;;;;;-141.50;100.00;63355.56;5062597;28;20080;-84
2022/01/14 08:34:27;;;;;;;8.60;4.03;;;;;;;-141.50;100.00;63355.56;5062856;28;20493;-84
2022/01/14 08:36:54;;;;;;;12.32;4.13;;;;;;;-141.50;100.00;63355.56;5064353;28;20041;-84
2022/01/14 08:39:21;;;;;;;8.70;4.28;;;;;;;-141.50;100.00;63355.56;5047847;28;20046;-83
2022/01/14 08:41:48;;;;;;;7.13;3.78;;;;;;;-141.50;100.00;63355.56;5047118;28;20045;-84
2022/01/14 08:44:15;;;;;;;8.10;4.18;;;;;;;-141.50;100.00;63355.56;5044960;28;20054;-84
2022/01/14 08:46:50;;;;;;;11.57;4.47;;;;;;;-141.50;100.00;63355.56;5048969;28;20055;-83
2022/01/14 08:49:16;;;;;;;10.05;4.70;;;;;;;-141.50;100.00;63355.56;5051202;28;20056;-84
2022/01/14 08:51:44;;;;;;;12.77;5.10;;;;;;;-141.50;100.00;63355.56;5060287;28;20053;-84
2022/01/14 08:54:10;;;;;;;10.43;4.70;;;;;;;-141.50;100.00;63355.56;5046094;28;20240;-85
2022/01/14 08:56:37;;;;;;;10.05;5.00;;;;;;;-141.50;100.00;63355.56;5061777;28;20055;-84
2022/01/14 08:59:04;;;;;;;9.60;5.10;;;;;;;-141.50;100.00;63355.56;5063516;28;20144;-83
2022/01/14 09:01:31;;;;;;;10.95;4.35;;;;;;;-141.50;100.00;63355.56;5059148;28;20592;-84
2022/01/14 09:03:58;;;;;;;12.30;4.78;;;;;;;-141.50;100.00;63355.56;5044002;28;20076;-84
2022/01/14 09:06:25;;;;;;;13.07;4.70;;;;;;;-141.50;100.00;63355.56;5064181;28;20075;-84
2022/01/14 09:08:52;;;;;;;8.77;4.28;;;;;;;-141.50;100.00;63355.56;5052009;28;20050;-84
2022/01/14 09:11:19;;;;;;;9.38;5.00;;;;;;;-141.50;100.00;63355.56;5063642;28;20048;-83
2022/01/14 09:13:45;;;;;;;12.90;4.88;;;;;;;-141.50;100.00;63355.56;5065083;28;20503;-83
2022/01/14 09:16:12;;;;;;;9.50;4.68;;;;;;;-141.50;100.00;63355.56;5056513;28;20053;-86
2022/01/14 09:18:39;;;;;;;13.15;5.18;;;;;;;-141.50;100.00;63355.56;5058994;28;20055;-85
2022/01/14 09:21:06;;;;;;;12.65;5.00;;;;;;;-141.50;100.00;63355.56;5063749;28;20052;-85
2022/01/14 09:23:34;;;;;;;8.65;4.53;;;;;;;-141.50;100.00;63355.56;5069495;28;20048;-84
2022/01/14 09:26:01;;;;;;;11.65;4.90;;;;;;;-141.50;100.00;63355.56;5061321;28;20056;-85
2022/01/14 09:28:28;;;;;;;9.95;5.32;;;;;;;-141.50;100.00;63355.56;5061815;28;20053;-85
2022/01/14 09:30:56;;;;;;;10.60;4.78;;;;;;;-141.50;100.00;63355.56;5062012;28;20060;-84
2022/01/14 09:33:23;;;;;;;9.38;4.80;;;;;;;-141.50;100.00;63355.56;5063340;28;20053;-86
2022/01/14 09:35:50;;;;;;;12.00;5.22;;;;;;;-141.50;100.00;63355.56;5044916;28;20049;-86
2022/01/14 09:38:17;;;;;;;12.45;5.90;;;;;;;-141.50;100.00;63355.56;5041747;28;20049;-85
2022/01/14 09:40:48;;;;;;;11.50;5.80;;;;;;;-141.50;100.00;63355.56;5057389;28;20076;-84
2022/01/14 09:43:15;;;;;;;10.25;5.85;;;;;;;-141.50;100.00;63355.56;5072657;28;20094;-83
2022/01/14 09:46:00;;;;;;;11.45;5.43;;;;;;;-141.50;100.00;63355.56;5073063;28;20106;-83
2022/01/14 09:48:26;;;;;;;13.57;6.13;;;;;;;-141.50;100.00;63355.56;5071256;28;20052;-85
2022/01/14 09:50:53;;;;;;;13.45;6.20;;;;;;;-141.50;100.00;63355.56;5064601;28;20075;-83
2022/01/14 09:53:20;;;;;;;12.68;6.70;;;;;;;-141.50;100.00;63355.56;5062919;28;20134;-84
2022/01/14 09:55:47;;;;;;;12.20;6.18;;;;;;;-141.50;100.00;63355.56;5060676;28;20045;-86
2022/01/14 09:58:13;;;;;;;13.35;6.45;;;;;;;-141.50;100.00;63355.56;5064309;28;20053;-82
2022/01/14 10:00:40;;;;;;;13.32;6.75;;;;;;;-141.50;100.00;63355.56;5066835;28;20037;-85
2022/01/14 10:03:21;;;;;;;15.00;6.95;;;;;;;-141.50;100.00;63355.56;5064742;28;20049;-85
2022/01/14 10:05:52;;;;;;;14.48;7.10;;;;;;;-141.50;100.00;63355.56;5064802;28;20044;-87
2022/01/14 10:08:27;;;;;;;15.15;7.63;;;;;;;-141.50;100.00;63355.56;5063249;28;20045;-83
2022/01/14 10:10:55;;;;;;;15.40;8.15;;;;;;;-141.50;100.00;63355.56;5064567;28;20098;-83
2022/01/14 10:13:24;;;;;;;17.85;8.57;;;;;;;-141.50;100.00;63355.56;5065171;28;20493;-83
2022/01/14 10:16:03;;;;;;;19.20;8.73;;;;;;;-141.50;100.00;63355.56;5062919;28;20102;-85
2022/01/14 10:18:32;;;;;;;19.02;9.07;;;;;;;-141.50;100.00;63355.56;5064518;28;20064;-85
2022/01/14 10:21:07;;;;;;;21.58;9.25;;;;;;;-141.50;100.00;63355.56;5065402;28;20048;-84
2022/01/14 10:23:47;;;;;;;24.90;10.23;;;;;;;-141.50;100.00;63355.56;5066339;28;20048;-83
2022/01/14 10:26:15;;;;;;;24.67;11.10;;;;;;;-141.50;100.00;63355.56;5066616;28;20056;-83
2022/01/14 10:28:45;;;;;;;29.85;13.25;;;;;;;-141.50;100.00;63355.56;5064715;28;20497;-84
2022/01/14 10:31:12;;;;;;;33.70;14.30;;;;;;;-141.50;100.00;63355.56;5064768;28;20049;-83
2022/01/14 10:33:40;;;;;;;38.00;15.40;;;;;;;-141.50;100.00;63355.56;5065971;28;20053;-84
2022/01/14 10:36:18;;;;;;;35.65;14.68;;;;;;;-141.50;100.00;63355.56;5064351;28;20234;-84
2022/01/14 10:38:46;;;;;;;36.40;15.00;;;;;;;-141.50;100.00;63355.56;5064418;28;20049;-84
2022/01/14 10:41:13;;;;;;;33.90;16.23;;;;;;;-141.50;100.00;63355.56;5069467;28;20057;-83
2022/01/14 10:43:43;;;;;;;36.97;16.38;;;;;;;-141.50;100.00;63355.56;5072998;28;20048;-83
2022/01/14 10:46:10;;;;;;;38.70;17.45;;;;;;;-141.50;100.00;63355.56;5065378;28;20164;-85
2022/01/14 10:48:40;;;;;;;44.08;18.98;;;;;;;-141.50;100.00;63355.56;5047205;28;20049;-83
2022/01/14 10:51:08;;;;;;;38.95;18.45;;;;;;;-141.50;100.00;63355.56;5039707;28;20103;-83
2022/01/14 10:53:39;;;;;;;42.28;18.42;;;;;;;-141.50;100.00;63355.56;5040007;28;20060;-84
2022/01/14 10:56:06;;;;;;;34.03;16.58;;;;;;;-141.50;100.00;63355.56;5046152;28;20046;-85
2022/01/14 10:58:36;;;;;;;41.10;18.48;;;;;;;-141.50;100.00;63355.56;5064088;28;20045;-85
2022/01/14 11:01:11;;;;;;;39.88;18.50;;;;;;;-141.50;100.00;63355.56;5065500;28;20079;-85
2022/01/14 11:03:53;;;;;;;38.17;17.13;;;;;;;-141.50;100.00;63355.56;5064274;28;20049;-83
2022/01/14 11:06:24;;;;;;;41.45;16.92;;;;;;;-141.50;100.00;63355.56;5066073;28;20052;-84
2022/01/14 11:09:12;;;;;;;34.40;16.05;;;;;;;-141.50;100.00;63355.56;5064686;28;20060;-83
2022/01/14 11:11:41;;;;;;;34.65;16.42;;;;;;;-141.50;100.00;63355.56;5057353;28;20124;-84
2022/01/14 11:14:08;;;;;;;33.28;16.40;;;;;;;-141.50;100.00;63355.56;5042958;28;20129;-84
2022/01/14 11:16:37;;;;;;;31.20;15.55;;;;;;;-141.50;100.00;63355.56;5052095;28;20040;-81
2022/01/14 11:19:07;;;;;;;33.83;15.48;;;;;;;-141.50;100.00;63355.56;5052072;28;20327;-85
2022/01/14 11:24:25;;;;;;;39.95;18.55;;;;;;;-141.50;100.00;63355.56;5058501;28;20060;-84
2022/01/14 11:27:11;;;;;;;39.03;17.70;;;;;;;-141.50;100.00;63355.56;5038242;28;20053;-87
2022/01/14 11:29:41;;;;;;;38.95;18.73;;;;;;;-141.50;100.00;63355.56;5053901;28;20371;-85
2022/01/14 11:32:09;;;;;;;48.00;19.60;;;;;;;-141.50;100.00;63355.56;5059859;28;20061;-85
2022/01/14 11:34:42;;;;;;;39.30;18.75;;;;;;;-141.50;100.00;63355.56;5061163;28;20436;-84
2022/01/14 11:37:14;;;;;;;42.25;18.95;;;;;;;-141.50;100.00;63355.56;5058895;28;20051;-85